Pagina principale
METAR-TAF:

METAR-TAF

Aeroporti :

Juba, Sudan

latitudine: 04-52N, longitudine: 031-36E, altezza: 460 m

METAR: mancante

Ora: 21:20 (19:20 UTC)

Previsione

Il bollettino è stato emesso 11 ore e 50 minuti fa, alle 07:30 UTC
Previsione valida dal 24 alle 08 UTC al 25 alle 12 UTC
Vento 3 kt da direzioni variabili
Visibilità: 7000 m
Nubi sparse ad un'altezza di 4000 ft
Evoluzione graduale
dal 24 alle 09 UTC al 24 alle 15 UTC
Vento 8 kt da nord
Visibilità 10 km o più
Poco nuvoloso ad un'altezza di 4000 ft
Probabilità 30% :
Temporaneamente
dal 24 alle 15 UTC al 24 alle 21 UTC
Vento 5 kt da nord/nord-est
Visibilità 10 km o più
Nubi sparse ad un'altezza di 4000 ft
Nubi sparse ad un'altezza di 14000 ft

TAF: HSSJ 240730Z 2408/2512 VRB03KT 7000 SCT040 BECMG 2409/2415 01008KT 9999 FEW040 PROB30 TEMPO 2415/2421 02005KT 9999 SCT040 SCT140

Osservazioni e previsioni meteorologiche di più di 4000 aeroporti (messaggi METAR e TAF).

Le stazioni disponibili sono rappresentate dai dischi gialli e rossi sulla carta.

Puntare il mouse per vedere il nome della stazione.

Clicca sopra per visualizzare le osservazioni e previsioni meteorologiche.

Per cambiare la mappa : fare clic sui pulsanti verdi con una croce nera per ingrandire, il pulsante verde con un trattino per diminuire, o sulla freccia verde per le mappe adiacenti.


METAR-TAF: